createdAt,value
2023-03-27T00:00:13.310Z,100.00
2023-03-27T00:02:41.837Z,100.00
2023-03-27T00:05:10.464Z,100.00
2023-03-27T00:07:41.422Z,100.00
2023-03-27T00:10:10.285Z,100.00
2023-03-27T00:12:39.160Z,100.00
2023-03-27T00:15:08.480Z,100.00
2023-03-27T00:17:37.503Z,100.00
2023-03-27T00:20:06.823Z,100.00
2023-03-27T00:22:36.023Z,100.00
2023-03-27T00:25:06.278Z,100.00
2023-03-27T00:27:34.417Z,100.00
2023-03-27T00:30:05.150Z,100.00
2023-03-27T00:32:34.632Z,100.00
2023-03-27T00:35:03.007Z,100.00
2023-03-27T00:37:31.395Z,100.00
2023-03-27T00:39:59.656Z,100.00
2023-03-27T00:42:29.248Z,100.00
2023-03-27T00:44:57.492Z,100.00
2023-03-27T00:47:33.044Z,100.00
2023-03-27T00:50:05.290Z,100.00
2023-03-27T00:52:34.109Z,100.00
2023-03-27T00:55:06.133Z,100.00
2023-03-27T00:57:37.025Z,100.00
2023-03-27T01:00:13.317Z,100.00
2023-03-27T01:02:45.087Z,100.00
2023-03-27T01:05:15.570Z,100.00
2023-03-27T01:08:01.352Z,100.00
2023-03-27T01:10:45.385Z,100.00
2023-03-27T01:13:28.155Z,100.00
2023-03-27T01:16:00.109Z,100.00
2023-03-27T01:18:38.469Z,100.00
2023-03-27T01:21:28.456Z,100.00
2023-03-27T01:24:29.886Z,100.00
2023-03-27T01:27:04.381Z,100.00
2023-03-27T01:29:49.268Z,100.00
2023-03-27T01:32:46.685Z,100.00
2023-03-27T01:35:29.581Z,100.00
2023-03-27T01:38:20.923Z,100.00
2023-03-27T01:40:58.431Z,100.00
2023-03-27T01:43:34.643Z,100.00
2023-03-27T01:46:09.276Z,100.00
2023-03-27T01:48:44.848Z,100.00
2023-03-27T01:51:18.224Z,100.00
2023-03-27T01:53:52.232Z,100.00
2023-03-27T01:56:26.809Z,100.00
2023-03-27T01:59:04.620Z,100.00
2023-03-27T02:01:37.938Z,100.00
2023-03-27T02:04:12.403Z,100.00
2023-03-27T02:06:43.853Z,100.00
2023-03-27T02:09:17.461Z,100.00
2023-03-27T02:11:52.557Z,100.00
2023-03-27T02:14:24.838Z,100.00
2023-03-27T02:16:58.189Z,100.00
2023-03-27T02:19:33.637Z,100.00
2023-03-27T02:22:02.146Z,100.00
2023-03-27T02:24:38.768Z,100.00
2023-03-27T02:27:13.944Z,100.00
2023-03-27T02:29:54.840Z,100.00
2023-03-27T02:32:35.157Z,100.00
2023-03-27T02:35:13.648Z,100.00
2023-03-27T02:37:52.336Z,100.00
2023-03-27T02:40:40.045Z,100.00
2023-03-27T02:43:38.467Z,100.00
2023-03-27T02:46:14.848Z,100.00
2023-03-27T02:48:47.048Z,100.00
2023-03-27T02:51:19.619Z,100.00
2023-03-27T02:53:54.025Z,100.00
2023-03-27T02:56:26.216Z,100.00
2023-03-27T02:59:00.613Z,100.00
2023-03-27T03:01:38.423Z,100.00
2023-03-27T03:04:29.956Z,100.00
2023-03-27T03:07:18.679Z,100.00
2023-03-27T03:09:46.940Z,100.00
2023-03-27T03:12:15.069Z,100.00
2023-03-27T03:14:47.181Z,100.00
2023-03-27T03:17:16.948Z,100.00
2023-03-27T03:19:46.731Z,100.00
2023-03-27T03:22:15.081Z,100.00
2023-03-27T03:24:43.832Z,100.00
2023-03-27T03:27:15.789Z,100.00
2023-03-27T03:29:53.187Z,100.00
2023-03-27T03:32:24.404Z,100.00
2023-03-27T03:34:54.298Z,100.00
2023-03-27T03:37:28.435Z,100.00
2023-03-27T03:39:58.167Z,100.00
2023-03-27T03:42:26.333Z,100.00
2023-03-27T03:44:55.830Z,100.00
2023-03-27T03:47:24.632Z,100.00
2023-03-27T03:49:52.777Z,100.00
2023-03-27T03:52:21.104Z,100.00
2023-03-27T03:54:49.328Z,100.00
2023-03-27T03:57:18.480Z,100.00
2023-03-27T04:00:02.374Z,100.00
2023-03-27T04:02:45.509Z,100.00
2023-03-27T04:05:17.022Z,100.00
2023-03-27T04:07:46.023Z,100.00
2023-03-27T04:10:22.098Z,100.00
2023-03-27T04:12:51.430Z,100.00
2023-03-27T04:15:39.707Z,100.00
2023-03-27T04:18:21.199Z,100.00
2023-03-27T04:20:50.339Z,100.00
2023-03-27T04:23:20.874Z,100.00
2023-03-27T04:25:49.441Z,100.00
2023-03-27T04:28:23.392Z,100.00
2023-03-27T04:31:07.492Z,100.00
2023-03-27T04:33:46.730Z,100.00
2023-03-27T04:36:34.607Z,100.00
2023-03-27T04:39:10.627Z,100.00
2023-03-27T04:41:39.030Z,100.00
2023-03-27T04:44:09.029Z,100.00
2023-03-27T04:46:42.590Z,100.00
2023-03-27T04:49:13.262Z,100.00
2023-03-27T04:51:59.936Z,100.00
2023-03-27T04:54:31.925Z,100.00
2023-03-27T04:57:01.934Z,100.00
2023-03-27T04:59:31.732Z,100.00
2023-03-27T05:02:21.343Z,100.00
2023-03-27T05:04:58.398Z,100.00
2023-03-27T05:07:32.667Z,100.00
2023-03-27T05:10:03.844Z,100.00
2023-03-27T05:12:33.178Z,100.00
2023-03-27T05:15:06.300Z,100.00
2023-03-27T05:17:41.987Z,100.00
2023-03-27T05:20:14.737Z,100.00
2023-03-27T05:22:44.704Z,100.00
2023-03-27T05:25:27.340Z,100.00
2023-03-27T05:27:56.381Z,100.00
2023-03-27T05:30:28.110Z,100.00
2023-03-27T05:33:14.409Z,100.00
2023-03-27T05:35:43.242Z,100.00
2023-03-27T05:38:12.157Z,100.00
2023-03-27T05:40:47.115Z,100.00
2023-03-27T05:43:18.365Z,100.00
2023-03-27T05:45:46.707Z,100.00
2023-03-27T05:48:16.233Z,100.00
2023-03-27T05:50:45.806Z,100.00
2023-03-27T05:53:19.774Z,100.00
2023-03-27T05:56:07.195Z,100.00
2023-03-27T05:58:47.206Z,100.00
2023-03-27T06:01:15.403Z,100.00
2023-03-27T06:03:45.263Z,100.00
2023-03-27T06:06:19.933Z,100.00
2023-03-27T06:08:48.655Z,100.00
2023-03-27T06:11:16.787Z,100.00
2023-03-27T06:13:47.135Z,100.00
2023-03-27T06:16:20.753Z,100.00
2023-03-27T06:19:09.466Z,100.00
2023-03-27T06:21:46.192Z,100.00
2023-03-27T06:24:14.633Z,100.00
2023-03-27T06:26:43.607Z,100.00
2023-03-27T06:29:13.327Z,100.00
2023-03-27T06:31:47.998Z,100.00
2023-03-27T06:34:25.319Z,100.00
2023-03-27T06:37:00.006Z,100.00
2023-03-27T06:39:28.918Z,100.00
2023-03-27T06:41:58.371Z,100.00
2023-03-27T06:44:36.649Z,100.00
2023-03-27T06:47:14.152Z,100.00
2023-03-27T06:50:02.882Z,100.00
2023-03-27T06:52:31.239Z,100.00
2023-03-27T06:55:15.080Z,100.00
2023-03-27T06:57:53.278Z,100.00
2023-03-27T07:00:24.720Z,100.00
2023-03-27T07:03:12.127Z,100.00
2023-03-27T07:06:08.032Z,100.00
2023-03-27T07:08:48.958Z,100.00
2023-03-27T07:11:18.553Z,100.00
2023-03-27T07:13:56.636Z,100.00
2023-03-27T07:16:28.603Z,100.00
2023-03-27T07:19:01.220Z,100.00
2023-03-27T07:21:32.912Z,100.00
2023-03-27T07:24:01.391Z,100.00
2023-03-27T07:26:34.359Z,100.00
2023-03-27T07:29:10.545Z,100.00
2023-03-27T07:31:55.349Z,100.00
2023-03-27T07:34:33.954Z,100.00
2023-03-27T07:37:09.164Z,100.00
2023-03-27T07:39:41.132Z,100.00
2023-03-27T07:42:09.812Z,100.00
2023-03-27T07:44:51.884Z,100.00
2023-03-27T07:47:20.074Z,100.00
2023-03-27T07:49:48.226Z,100.00
2023-03-27T07:52:23.415Z,100.00
2023-03-27T07:54:57.984Z,100.00
2023-03-27T07:57:39.456Z,100.00
2023-03-27T08:00:22.825Z,100.00
2023-03-27T08:03:07.409Z,100.00
2023-03-27T08:05:36.075Z,100.00
2023-03-27T08:08:12.377Z,100.00
2023-03-27T08:10:47.421Z,100.00
2023-03-27T08:13:18.345Z,100.00
2023-03-27T08:15:46.647Z,100.00
2023-03-27T08:18:23.062Z,100.00
2023-03-27T08:20:57.225Z,100.00
2023-03-27T08:23:28.814Z,100.00
2023-03-27T08:26:16.068Z,100.00
2023-03-27T08:29:03.766Z,100.00
2023-03-27T08:31:34.361Z,100.00
2023-03-27T08:34:05.684Z,100.00
2023-03-27T08:36:44.208Z,100.00
2023-03-27T08:39:14.511Z,100.00
2023-03-27T08:42:06.231Z,100.00
2023-03-27T08:44:38.454Z,100.00
2023-03-27T08:47:18.073Z,100.00
2023-03-27T08:49:56.786Z,100.00
2023-03-27T08:52:29.858Z,100.00
2023-03-27T08:55:06.793Z,100.00
2023-03-27T08:57:40.867Z,100.00
2023-03-27T09:00:23.448Z,100.00
2023-03-27T09:03:05.988Z,100.00
2023-03-27T09:05:42.557Z,100.00
2023-03-27T09:08:21.320Z,100.00
2023-03-27T09:10:52.857Z,100.00
2023-03-27T09:13:33.186Z,100.00
2023-03-27T09:16:03.323Z,100.00
2023-03-27T09:18:37.346Z,100.00
2023-03-27T09:21:16.291Z,100.00
2023-03-27T09:23:46.578Z,100.00
2023-03-27T09:26:37.307Z,100.00
2023-03-27T09:29:20.416Z,100.00
2023-03-27T09:31:57.145Z,100.00
2023-03-27T09:34:28.618Z,100.00
2023-03-27T09:37:00.362Z,100.00
2023-03-27T09:39:34.012Z,100.00
2023-03-27T09:42:20.046Z,100.00
2023-03-27T09:44:52.214Z,100.00
2023-03-27T09:47:26.554Z,100.00
2023-03-27T09:49:58.846Z,100.00
2023-03-27T09:52:43.833Z,100.00
2023-03-27T09:55:26.929Z,100.00
2023-03-27T09:58:00.646Z,100.00
2023-03-27T10:00:32.102Z,100.00
2023-03-27T10:03:03.933Z,100.00
2023-03-27T10:05:33.768Z,100.00
2023-03-27T10:08:29.278Z,100.00
2023-03-27T10:11:19.817Z,100.00
2023-03-27T10:13:53.306Z,100.00
2023-03-27T10:16:24.971Z,100.00
2023-03-27T10:19:04.587Z,100.00
2023-03-27T10:21:42.771Z,100.00
2023-03-27T10:24:22.120Z,100.00
2023-03-27T10:27:19.510Z,100.00
2023-03-27T10:30:30.967Z,100.00
2023-03-27T10:33:15.121Z,93.75
2023-03-27T10:35:50.800Z,92.36
2023-03-27T10:38:27.866Z,100.00
2023-03-27T10:41:28.819Z,96.91
2023-03-27T10:43:59.191Z,85.38
2023-03-27T10:46:31.564Z,98.96
2023-03-27T10:49:18.177Z,97.01
2023-03-27T10:51:51.994Z,98.28
2023-03-27T10:54:36.823Z,100.00
2023-03-27T10:57:11.458Z,100.00
2023-03-27T10:59:45.403Z,100.00
2023-03-27T11:02:33.848Z,100.00
2023-03-27T11:05:07.814Z,95.94
2023-03-27T11:07:43.964Z,88.22
2023-03-27T11:10:21.090Z,91.82
2023-03-27T11:12:57.446Z,92.86
2023-03-27T11:15:32.963Z,100.00
2023-03-27T11:18:08.069Z,100.00
2023-03-27T11:20:47.036Z,100.00
2023-03-27T11:23:41.099Z,99.14
2023-03-27T11:26:34.046Z,92.91
2023-03-27T11:29:09.402Z,83.47
2023-03-27T11:31:47.274Z,84.39
2023-03-27T11:34:35.666Z,87.09
2023-03-27T11:37:32.023Z,92.11
2023-03-27T11:40:06.990Z,92.55
2023-03-27T11:42:40.754Z,90.10
2023-03-27T11:45:13.241Z,84.92
2023-03-27T11:47:59.181Z,86.89
2023-03-27T11:50:39.647Z,88.13
2023-03-27T11:53:23.543Z,84.51
2023-03-27T11:56:24.728Z,91.90
2023-03-27T11:59:13.674Z,90.71
2023-03-27T12:01:59.359Z,87.85
2023-03-27T12:04:41.414Z,91.29
2023-03-27T12:07:48.259Z,84.80
2023-03-27T12:10:29.484Z,84.09
2023-03-27T12:13:41.732Z,75.07
2023-03-27T12:16:36.444Z,81.33
2023-03-27T12:19:29.615Z,72.39
2023-03-27T12:22:25.685Z,70.12
2023-03-27T12:25:21.873Z,72.94
2023-03-27T12:28:01.399Z,77.07
2023-03-27T12:30:47.679Z,72.32
2023-03-27T12:33:38.011Z,80.33
2023-03-27T12:36:11.240Z,79.97
2023-03-27T12:38:43.136Z,79.42
2023-03-27T12:41:24.062Z,84.76
2023-03-27T12:44:14.423Z,73.33
2023-03-27T12:47:09.018Z,72.15
2023-03-27T12:49:47.417Z,76.52
2023-03-27T12:52:25.526Z,80.00
2023-03-27T12:55:28.555Z,78.80
2023-03-27T12:58:00.743Z,84.07
2023-03-27T13:00:54.911Z,73.00
2023-03-27T13:03:52.802Z,67.23
2023-03-27T13:06:36.565Z,66.91
2023-03-27T13:09:25.874Z,68.84
2023-03-27T13:12:19.487Z,71.41
2023-03-27T13:15:04.347Z,77.04
2023-03-27T13:17:51.692Z,69.55
2023-03-27T13:20:32.711Z,71.88
2023-03-27T13:23:12.888Z,70.33
2023-03-27T13:26:03.286Z,70.58
2023-03-27T13:28:38.203Z,70.62
2023-03-27T13:31:55.847Z,61.19
2023-03-27T13:35:04.884Z,59.37
2023-03-27T13:37:48.293Z,69.70
2023-03-27T13:40:24.630Z,72.13
2023-03-27T13:43:07.812Z,62.43
2023-03-27T13:45:46.564Z,62.47
2023-03-27T13:49:00.195Z,60.44
2023-03-27T13:51:50.328Z,67.37
2023-03-27T13:54:46.226Z,68.69
2023-03-27T13:57:29.248Z,68.98
2023-03-27T14:00:30.943Z,66.07
2023-03-27T14:03:37.265Z,66.08
2023-03-27T14:06:39.181Z,60.32
2023-03-27T14:09:18.059Z,62.62
2023-03-27T14:12:13.684Z,64.74
2023-03-27T14:15:17.022Z,61.94
2023-03-27T14:18:05.969Z,59.85
2023-03-27T14:20:47.769Z,57.82
2023-03-27T14:23:23.427Z,56.63
2023-03-27T14:26:03.623Z,54.64
2023-03-27T14:28:46.815Z,56.92
2023-03-27T14:31:19.053Z,56.08
2023-03-27T14:34:02.847Z,56.95
2023-03-27T14:36:36.039Z,56.93
2023-03-27T14:39:17.188Z,56.18
2023-03-27T14:41:55.700Z,56.05
2023-03-27T14:44:25.986Z,57.56
2023-03-27T14:47:00.782Z,59.59
2023-03-27T14:49:36.214Z,58.80
2023-03-27T14:52:09.124Z,61.31
2023-03-27T14:54:58.138Z,61.34
2023-03-27T14:57:32.206Z,60.83
2023-03-27T15:00:07.037Z,58.20
2023-03-27T15:02:42.099Z,58.64
2023-03-27T15:05:12.706Z,60.19
2023-03-27T15:07:45.155Z,58.51
2023-03-27T15:10:26.265Z,59.88
2023-03-27T15:13:12.971Z,66.67
2023-03-27T15:15:50.253Z,61.58
2023-03-27T15:18:28.250Z,63.89
2023-03-27T15:21:01.760Z,63.21
2023-03-27T15:23:36.773Z,65.64
2023-03-27T15:26:14.940Z,64.80
2023-03-27T15:28:49.954Z,62.71
2023-03-27T15:31:18.822Z,66.75
2023-03-27T15:33:53.655Z,65.78
2023-03-27T15:36:27.894Z,62.62
2023-03-27T15:38:56.722Z,62.72
2023-03-27T15:41:44.935Z,62.90
2023-03-27T15:44:18.489Z,64.06
2023-03-27T15:46:50.848Z,58.73
2023-03-27T15:49:22.433Z,57.83
2023-03-27T15:51:50.993Z,57.35
2023-03-27T15:54:29.074Z,63.68
2023-03-27T15:57:10.417Z,57.94
2023-03-27T15:59:52.434Z,56.20
2023-03-27T16:02:23.072Z,58.05
2023-03-27T16:04:55.081Z,59.30
2023-03-27T16:07:27.946Z,57.44
2023-03-27T16:09:59.771Z,56.51
2023-03-27T16:12:34.022Z,58.97
2023-03-27T16:15:08.022Z,60.65
2023-03-27T16:17:41.195Z,59.71
2023-03-27T16:20:43.620Z,60.10
2023-03-27T16:23:11.773Z,62.98
2023-03-27T16:25:41.274Z,67.03
2023-03-27T16:28:12.422Z,71.54
2023-03-27T16:30:42.016Z,70.11
2023-03-27T16:33:16.351Z,73.98
2023-03-27T16:35:45.982Z,71.59
2023-03-27T16:38:14.751Z,76.12
2023-03-27T16:40:43.101Z,83.62
2023-03-27T16:43:12.585Z,81.00
2023-03-27T16:45:41.487Z,75.24
2023-03-27T16:48:11.665Z,76.23
2023-03-27T16:50:40.204Z,70.93
2023-03-27T16:53:08.352Z,66.34
2023-03-27T16:55:36.594Z,78.64
2023-03-27T16:58:04.786Z,82.11
2023-03-27T17:00:34.365Z,72.06
2023-03-27T17:03:02.508Z,68.91
2023-03-27T17:05:34.337Z,67.41
2023-03-27T17:08:05.341Z,71.21
2023-03-27T17:10:34.911Z,65.83
2023-03-27T17:13:03.482Z,72.52
2023-03-27T17:15:31.556Z,77.86
2023-03-27T17:18:01.020Z,75.12
2023-03-27T17:20:29.299Z,71.50
2023-03-27T17:22:57.800Z,74.36
2023-03-27T17:25:26.475Z,73.02
2023-03-27T17:27:54.612Z,74.82
2023-03-27T17:30:36.702Z,79.17
2023-03-27T17:33:09.214Z,77.29
2023-03-27T17:35:39.742Z,81.27
2023-03-27T17:38:08.681Z,81.55
2023-03-27T17:40:39.992Z,84.96
2023-03-27T17:43:08.265Z,83.71
2023-03-27T17:45:36.574Z,91.40
2023-03-27T17:48:07.012Z,90.89
2023-03-27T17:50:36.515Z,98.47
2023-03-27T17:53:05.018Z,97.15
2023-03-27T17:55:33.123Z,100.00
2023-03-27T17:58:08.351Z,100.00
2023-03-27T18:00:38.613Z,100.00
2023-03-27T18:03:08.821Z,100.00
2023-03-27T18:05:39.086Z,100.00
2023-03-27T18:08:08.811Z,100.00
2023-03-27T18:10:38.033Z,100.00
2023-03-27T18:13:07.432Z,100.00
2023-03-27T18:15:35.765Z,100.00
2023-03-27T18:18:04.011Z,100.00
2023-03-27T18:20:32.237Z,100.00
2023-03-27T18:23:01.674Z,100.00
2023-03-27T18:25:30.402Z,100.00
2023-03-27T18:27:58.509Z,100.00
2023-03-27T18:30:26.719Z,100.00
2023-03-27T18:32:54.854Z,100.00
2023-03-27T18:35:23.194Z,100.00
2023-03-27T18:37:51.269Z,100.00
2023-03-27T18:40:21.073Z,100.00
2023-03-27T18:42:49.881Z,100.00
2023-03-27T18:45:18.598Z,100.00
2023-03-27T18:47:46.737Z,100.00
2023-03-27T18:50:15.883Z,100.00
2023-03-27T18:52:44.551Z,100.00
2023-03-27T18:55:13.400Z,100.00
2023-03-27T18:57:42.862Z,100.00
2023-03-27T19:00:18.546Z,100.00
2023-03-27T19:02:47.002Z,100.00
2023-03-27T19:05:16.210Z,100.00
2023-03-27T19:07:45.052Z,100.00
2023-03-27T19:10:14.115Z,100.00
2023-03-27T19:12:49.688Z,100.00
2023-03-27T19:15:40.410Z,100.00
2023-03-27T19:18:30.091Z,100.00
2023-03-27T19:21:14.739Z,100.00
2023-03-27T19:23:46.051Z,100.00
2023-03-27T19:26:19.339Z,100.00
2023-03-27T19:28:48.860Z,100.00
2023-03-27T19:31:17.926Z,100.00
2023-03-27T19:33:46.364Z,100.00
2023-03-27T19:36:14.596Z,100.00
2023-03-27T19:38:42.799Z,100.00
2023-03-27T19:41:11.304Z,100.00
2023-03-27T19:43:39.485Z,100.00
2023-03-27T19:48:42.382Z,100.00
2023-03-27T19:51:18.359Z,100.00
2023-03-27T19:53:50.427Z,100.00
2023-03-27T19:56:22.542Z,100.00
2023-03-27T19:58:50.727Z,100.00
2023-03-27T20:01:21.548Z,100.00
2023-03-27T20:03:49.847Z,100.00
2023-03-27T20:06:19.556Z,100.00
2023-03-27T20:08:47.808Z,100.00
2023-03-27T20:11:17.392Z,100.00
2023-03-27T20:13:56.065Z,100.00
2023-03-27T20:16:28.858Z,100.00
2023-03-27T20:19:03.591Z,100.00
2023-03-27T20:21:33.790Z,100.00
2023-03-27T20:24:02.295Z,100.00
2023-03-27T20:26:39.421Z,100.00
2023-03-27T20:29:18.947Z,100.00
2023-03-27T20:31:48.627Z,100.00
2023-03-27T20:34:20.077Z,100.00
2023-03-27T20:36:48.672Z,100.00
2023-03-27T20:39:28.549Z,100.00
2023-03-27T20:41:59.303Z,100.00
2023-03-27T20:44:35.185Z,100.00
2023-03-27T20:47:10.990Z,100.00
2023-03-27T20:49:41.630Z,100.00
2023-03-27T20:52:10.824Z,100.00
2023-03-27T20:54:39.212Z,100.00
2023-03-27T20:57:11.315Z,100.00
2023-03-27T20:59:39.779Z,100.00
2023-03-27T21:02:16.581Z,100.00
2023-03-27T21:04:44.890Z,100.00
2023-03-27T21:07:13.094Z,100.00
2023-03-27T21:09:41.805Z,100.00
2023-03-27T21:12:10.263Z,100.00
2023-03-27T21:14:38.584Z,100.00
2023-03-27T21:17:06.806Z,100.00
2023-03-27T21:19:36.305Z,100.00
2023-03-27T21:22:04.452Z,100.00
2023-03-27T21:24:32.748Z,100.00
2023-03-27T21:27:01.112Z,100.00
2023-03-27T21:29:29.346Z,100.00
2023-03-27T21:31:57.527Z,100.00
2023-03-27T21:34:25.957Z,100.00
2023-03-27T21:36:55.383Z,100.00
2023-03-27T21:39:23.584Z,100.00
2023-03-27T21:41:51.702Z,100.00
2023-03-27T21:44:19.855Z,100.00
2023-03-27T21:46:47.916Z,100.00
2023-03-27T21:49:16.217Z,100.00
2023-03-27T21:51:44.997Z,100.00
2023-03-27T21:54:14.437Z,100.00
2023-03-27T21:56:42.593Z,100.00
2023-03-27T21:59:10.935Z,100.00
2023-03-27T22:01:39.137Z,100.00
2023-03-27T22:04:07.319Z,100.00
2023-03-27T22:06:36.345Z,100.00
2023-03-27T22:09:04.634Z,100.00
2023-03-27T22:11:34.075Z,100.00
2023-03-27T22:14:02.246Z,100.00
2023-03-27T22:16:30.950Z,100.00
2023-03-27T22:18:59.130Z,100.00
2023-03-27T22:21:29.136Z,100.00
2023-03-27T22:23:59.040Z,100.00
2023-03-27T22:26:30.039Z,100.00
2023-03-27T22:29:00.385Z,100.00
2023-03-27T22:31:29.175Z,100.00
2023-03-27T22:33:57.503Z,100.00
2023-03-27T22:36:25.713Z,100.00
2023-03-27T22:38:54.103Z,100.00
2023-03-27T22:41:22.162Z,100.00
2023-03-27T22:43:50.274Z,100.00
2023-03-27T22:46:22.087Z,100.00
2023-03-27T22:48:54.643Z,100.00
2023-03-27T22:51:23.032Z,100.00
2023-03-27T22:53:51.245Z,100.00
2023-03-27T22:56:19.391Z,100.00
2023-03-27T22:58:47.690Z,100.00
2023-03-27T23:01:15.948Z,100.00
2023-03-27T23:03:45.614Z,100.00
2023-03-27T23:06:18.889Z,100.00
2023-03-27T23:08:48.543Z,100.00
2023-03-27T23:11:16.791Z,100.00
2023-03-27T23:13:45.320Z,100.00
2023-03-27T23:16:13.683Z,100.00
2023-03-27T23:18:42.104Z,100.00
2023-03-27T23:21:13.742Z,100.00
2023-03-27T23:23:42.122Z,100.00
2023-03-27T23:26:11.554Z,100.00
2023-03-27T23:28:41.303Z,100.00
2023-03-27T23:31:12.728Z,100.00
2023-03-27T23:33:43.016Z,100.00
2023-03-27T23:36:14.972Z,100.00
2023-03-27T23:38:43.901Z,100.00
2023-03-27T23:41:16.391Z,100.00
2023-03-27T23:43:44.747Z,100.00
2023-03-27T23:46:14.027Z,100.00
2023-03-27T23:48:44.196Z,100.00
2023-03-27T23:51:15.644Z,100.00
2023-03-27T23:53:44.476Z,100.00
2023-03-27T23:56:12.828Z,100.00
2023-03-27T23:58:41.031Z,100.00
